Algowood — VCTD — position and weather

sailwx.info

Track history (hours):
 
Tides and Currents Weather Stations Pressure Air Temp Water Temp Dewpoint Dewpoint Depression Visibility Wind Speed Wind Dir Waves Ship Positions

Algowood

Last reported at 2014-Sep-16 00:12 UTC. Time now 2014-Sep-16 00:59 UTC.
Position N 46°20' W 084°11'.

Length 223 m; draft 8.1 m.

Type: Cargo ship. MMSI: 316001802.

Date/timePositionNaut miles runAvg speedWind from/ knotsBaromVisibWave heightAir tempDewpointWater temp
2014-Sep-16 00:12N 46°20' W 084°11'14 7.4
2014-Sep-15 22:19N 46°08' W 084°01'11 9.0
2014-Sep-15 21:04N 45°58' W 083°53'611.2
2014-Sep-15 20:33N 45°53' W 083°51'6211.1
2014-Sep-15 15:00N 45°06' W 082°54'33 0.7 330 / 151018.010.8 1.014.0
2014-Sep-13 15:00N 44°36' W 082°36'9813.1 340 / 201021.010.8 1.010.0
2014-Sep-13 07:27N 45°58' W 083°54'20 8.8
2014-Sep-13 05:14N 46°14' W 084°10'109 7.1
2014-Sep-12 14:00N 47°18' W 086°18'   030 / 91027.010.8 9.0
2014-Sep-09 11:32N 46°54' W 085°03'1410.8
2014-Sep-09 10:12N 46°44' W 084°48'811.5
2014-Sep-09 09:33N 46°37' W 084°44'1211.6
2014-Sep-09 08:33N 46°28' W 084°34'14 2.6
2014-Sep-09 03:18N 46°24' W 084°14'13 6.8
2014-Sep-09 01:27N 46°13' W 084°07'9 8.9
2014-Sep-09 00:29N 46°05' W 084°01'9 9.3
2014-Sep-08 23:33N 45°58' W 083°53'1411.4
2014-Sep-08 22:19N 45°46' W 083°43'9110.9
2014-Sep-08 14:00N 44°24' W 082°48'   180 / 71020.010.8 0.524.0
Track history (hours):
 
Tides and Currents Weather Stations Pressure Air Temp Water Temp Dewpoint Dewpoint Depression Visibility Wind Speed Wind Dir Waves Ship Positions

Algowood

Last reported at 2014-Sep-16 00:12 UTC. Time now 2014-Sep-16 00:59 UTC.
Position N 46°20' W 084°11'.

Length 223 m; draft 8.1 m.

Type: Cargo ship. MMSI: 316001802.

Date/timePositionNaut miles runAvg speedWind from/ knotsBaromVisibWave heightAir tempDewpointWater temp
2014-Sep-16 00:12N 46°20' W 084°11'14 7.4
2014-Sep-15 22:19N 46°08' W 084°01'11 9.0
2014-Sep-15 21:04N 45°58' W 083°53'611.2
2014-Sep-15 20:33N 45°53' W 083°51'6211.1
2014-Sep-15 15:00N 45°06' W 082°54'33 0.7 330 / 151018.010.8 1.014.0
2014-Sep-13 15:00N 44°36' W 082°36'9813.1 340 / 201021.010.8 1.010.0
2014-Sep-13 07:27N 45°58' W 083°54'20 8.8
2014-Sep-13 05:14N 46°14' W 084°10'109 7.1
2014-Sep-12 14:00N 47°18' W 086°18'   030 / 91027.010.8 9.0
2014-Sep-09 11:32N 46°54' W 085°03'1410.8
2014-Sep-09 10:12N 46°44' W 084°48'811.5
2014-Sep-09 09:33N 46°37' W 084°44'1211.6
2014-Sep-09 08:33N 46°28' W 084°34'14 2.6
2014-Sep-09 03:18N 46°24' W 084°14'13 6.8
2014-Sep-09 01:27N 46°13' W 084°07'9 8.9
2014-Sep-09 00:29N 46°05' W 084°01'9 9.3
2014-Sep-08 23:33N 45°58' W 083°53'1411.4
2014-Sep-08 22:19N 45°46' W 083°43'9110.9
2014-Sep-08 14:00N 44°24' W 082°48'   180 / 71020.010.8 0.524.0

Dump ship's entire track history